createdAt,value
2022-12-11T00:02:01.649Z,81.48
2022-12-11T00:04:03.335Z,81.70
2022-12-11T00:06:06.464Z,81.63
2022-12-11T00:08:08.181Z,81.57
2022-12-11T00:10:09.909Z,82.72
2022-12-11T00:12:11.791Z,80.95
2022-12-11T00:14:15.568Z,81.03
2022-12-11T00:16:25.281Z,79.26
2022-12-11T00:18:28.396Z,80.79
2022-12-11T00:20:30.078Z,81.73
2022-12-11T00:22:34.565Z,81.88
2022-12-11T00:24:36.136Z,83.46
2022-12-11T00:26:38.173Z,81.89
2022-12-11T00:28:39.803Z,82.53
2022-12-11T00:30:43.068Z,82.66
2022-12-11T00:32:44.607Z,83.11
2022-12-11T00:34:46.183Z,83.06
2022-12-11T00:36:48.459Z,82.75
2022-12-11T00:38:50.694Z,82.56
2022-12-11T00:40:52.261Z,82.23
2022-12-11T00:42:53.789Z,82.49
2022-12-11T00:44:55.325Z,82.09
2022-12-11T00:46:58.191Z,80.66
2022-12-11T00:49:00.045Z,80.64
2022-12-11T00:51:01.723Z,81.33
2022-12-11T00:53:03.987Z,81.84
2022-12-11T00:55:06.154Z,81.65
2022-12-11T00:57:07.761Z,81.50
2022-12-11T00:59:09.499Z,82.08
2022-12-11T01:01:13.603Z,82.60
2022-12-11T01:03:17.580Z,82.80
2022-12-11T01:05:19.194Z,81.07
2022-12-11T01:07:20.769Z,82.68
2022-12-11T01:09:22.287Z,83.00
2022-12-11T01:11:25.885Z,82.58
2022-12-11T01:13:27.429Z,83.25
2022-12-11T01:15:30.541Z,82.96
2022-12-11T01:17:32.056Z,82.32
2022-12-11T01:19:35.084Z,83.60
2022-12-11T01:21:36.764Z,83.89
2022-12-11T01:23:38.795Z,83.25
2022-12-11T01:25:41.655Z,82.99
2022-12-11T01:27:47.061Z,82.06
2022-12-11T01:29:48.928Z,82.17
2022-12-11T01:31:50.480Z,81.96
2022-12-11T01:33:54.105Z,81.31
2022-12-11T01:35:57.027Z,83.49
2022-12-11T01:37:58.567Z,83.12
2022-12-11T01:40:00.817Z,83.57
2022-12-11T01:42:02.322Z,83.07
2022-12-11T01:44:07.352Z,82.62
2022-12-11T01:46:08.935Z,83.14
2022-12-11T01:48:14.242Z,82.84
2022-12-11T01:50:16.533Z,83.35
2022-12-11T01:52:31.042Z,83.47
2022-12-11T01:54:32.559Z,81.48
2022-12-11T01:56:35.832Z,82.27
2022-12-11T01:58:42.309Z,83.08
2022-12-11T02:00:43.849Z,84.48
2022-12-11T02:02:45.460Z,82.23
2022-12-11T02:04:47.653Z,80.85
2022-12-11T02:06:50.881Z,83.17
2022-12-11T02:08:53.978Z,84.06
2022-12-11T02:11:05.315Z,83.43
2022-12-11T02:13:14.664Z,83.91
2022-12-11T02:15:25.012Z,84.00
2022-12-11T02:17:35.181Z,83.47
2022-12-11T02:19:49.528Z,83.00
2022-12-11T02:21:53.619Z,83.36
2022-12-11T02:24:23.241Z,84.31
2022-12-11T02:26:54.619Z,83.87
2022-12-11T02:28:59.325Z,84.45
2022-12-11T02:31:07.185Z,84.67
2022-12-11T02:33:11.824Z,84.76
2022-12-11T02:35:17.845Z,83.19
2022-12-11T02:37:22.778Z,84.63
2022-12-11T02:39:27.350Z,84.77
2022-12-11T02:41:30.189Z,83.56
2022-12-11T02:43:34.304Z,83.57
2022-12-11T02:45:40.381Z,84.36
2022-12-11T02:47:46.138Z,84.12
2022-12-11T02:49:50.029Z,83.24
2022-12-11T02:51:52.843Z,84.08
2022-12-11T02:53:57.851Z,84.79
2022-12-11T02:56:07.836Z,83.80
2022-12-11T02:58:15.766Z,84.14
2022-12-11T03:00:17.647Z,85.94
2022-12-11T03:02:20.645Z,85.98
2022-12-11T03:04:22.304Z,85.78
2022-12-11T03:06:28.870Z,85.34
2022-12-11T03:08:31.317Z,85.65
2022-12-11T03:10:32.938Z,85.99
2022-12-11T03:12:37.241Z,85.42
2022-12-11T03:14:40.483Z,85.01
2022-12-11T03:16:53.257Z,85.06
2022-12-11T03:19:02.346Z,84.09
2022-12-11T03:21:07.892Z,84.43
2022-12-11T03:23:18.105Z,86.05
2022-12-11T03:25:22.605Z,85.75
2022-12-11T03:27:30.327Z,87.01
2022-12-11T03:29:37.275Z,86.13
2022-12-11T03:31:43.360Z,86.26
2022-12-11T03:33:48.624Z,86.08
2022-12-11T03:35:54.013Z,86.49
2022-12-11T03:37:58.040Z,86.65
2022-12-11T03:40:04.506Z,86.96
2022-12-11T03:42:10.145Z,85.36
2022-12-11T03:44:12.939Z,86.90
2022-12-11T03:46:16.911Z,86.44
2022-12-11T03:48:19.772Z,86.51
2022-12-11T03:50:23.527Z,85.97
2022-12-11T03:52:29.015Z,86.66
2022-12-11T03:54:31.954Z,87.26
2022-12-11T03:56:35.758Z,87.58
2022-12-11T03:58:37.411Z,88.32
2022-12-11T04:00:39.070Z,86.31
2022-12-11T04:02:40.698Z,87.91
2022-12-11T04:04:42.918Z,87.07
2022-12-11T04:06:44.515Z,86.16
2022-12-11T04:08:47.446Z,85.89
2022-12-11T04:10:49.814Z,86.23
2022-12-11T04:12:51.453Z,87.28
2022-12-11T04:14:52.965Z,88.17
2022-12-11T04:16:55.302Z,87.99
2022-12-11T04:18:56.872Z,88.29
2022-12-11T04:20:58.421Z,88.74
2022-12-11T04:22:59.994Z,87.16
2022-12-11T04:25:06.264Z,87.73
2022-12-11T04:27:07.914Z,86.54
2022-12-11T04:29:09.500Z,86.87
2022-12-11T04:31:12.225Z,87.90
2022-12-11T04:33:13.791Z,87.92
2022-12-11T04:35:15.533Z,87.83
2022-12-11T04:37:17.162Z,86.35
2022-12-11T04:39:18.717Z,87.41
2022-12-11T04:41:21.614Z,87.55
2022-12-11T04:43:23.484Z,87.89
2022-12-11T04:45:24.998Z,87.71
2022-12-11T04:47:26.540Z,88.12
2022-12-11T04:49:28.112Z,87.26
2022-12-11T04:51:29.800Z,89.72
2022-12-11T04:53:31.690Z,89.37
2022-12-11T04:55:33.537Z,87.14
2022-12-11T04:57:36.408Z,88.34
2022-12-11T04:59:38.025Z,88.29
2022-12-11T05:01:41.366Z,87.49
2022-12-11T05:03:43.302Z,88.80
2022-12-11T05:05:47.547Z,88.86
2022-12-11T05:07:49.101Z,88.27
2022-12-11T05:09:50.692Z,88.95
2022-12-11T05:11:52.295Z,88.97
2022-12-11T05:13:55.247Z,89.19
2022-12-11T05:15:57.853Z,89.71
2022-12-11T05:17:59.408Z,88.87
2022-12-11T05:20:01.078Z,89.93
2022-12-11T05:22:02.624Z,91.44
2022-12-11T05:24:04.826Z,92.12
2022-12-11T05:26:08.211Z,89.59
2022-12-11T05:28:09.827Z,92.70
2022-12-11T05:30:13.228Z,91.26
2022-12-11T05:32:14.776Z,91.53
2022-12-11T05:34:16.402Z,91.35
2022-12-11T05:36:20.675Z,92.42
2022-12-11T05:38:22.761Z,92.19
2022-12-11T05:40:24.295Z,91.52
2022-12-11T05:42:29.007Z,91.47
2022-12-11T05:44:30.975Z,90.19
2022-12-11T05:46:33.933Z,92.27
2022-12-11T05:48:36.223Z,92.20
2022-12-11T05:50:37.772Z,92.35
2022-12-11T05:52:39.331Z,92.28
2022-12-11T05:54:40.839Z,92.85
2022-12-11T05:56:42.761Z,92.46
2022-12-11T05:58:47.311Z,90.29
2022-12-11T06:00:48.903Z,89.73
2022-12-11T06:02:51.964Z,91.46
2022-12-11T06:04:53.588Z,91.70
2022-12-11T06:06:55.283Z,90.84
2022-12-11T06:08:58.573Z,90.23
2022-12-11T06:11:00.522Z,90.66
2022-12-11T06:13:02.081Z,92.14
2022-12-11T06:15:04.009Z,92.05
2022-12-11T06:17:05.530Z,90.74
2022-12-11T06:19:13.784Z,91.17
2022-12-11T06:21:17.047Z,90.05
2022-12-11T06:23:18.595Z,90.45
2022-12-11T06:25:20.093Z,91.79
2022-12-11T06:27:21.644Z,92.28
2022-12-11T06:29:23.157Z,93.32
2022-12-11T06:31:24.752Z,92.49
2022-12-11T06:33:26.561Z,90.35
2022-12-11T06:35:29.563Z,89.75
2022-12-11T06:37:31.165Z,90.83
2022-12-11T06:39:32.848Z,91.40
2022-12-11T06:41:34.373Z,90.98
2022-12-11T06:43:40.343Z,91.70
2022-12-11T06:45:42.171Z,91.95
2022-12-11T06:47:43.558Z,90.68
2022-12-11T06:49:45.069Z,90.90
2022-12-11T06:51:47.971Z,90.61
2022-12-11T06:53:51.246Z,88.98
2022-12-11T06:55:52.782Z,89.69
2022-12-11T06:57:54.599Z,90.31
2022-12-11T06:59:55.937Z,89.11
2022-12-11T07:01:57.534Z,87.64
2022-12-11T07:04:00.082Z,87.73
2022-12-11T07:06:02.180Z,84.10
2022-12-11T07:08:05.447Z,85.22
2022-12-11T07:10:08.872Z,84.12
2022-12-11T07:12:10.501Z,83.14
2022-12-11T07:14:12.068Z,81.77
2022-12-11T07:16:15.563Z,82.34
2022-12-11T07:18:17.102Z,82.70
2022-12-11T07:20:18.642Z,82.73
2022-12-11T07:22:20.222Z,81.84
2022-12-11T07:24:23.262Z,82.42
2022-12-11T07:26:25.047Z,82.32
2022-12-11T07:28:26.654Z,82.35
2022-12-11T07:30:28.244Z,82.33
2022-12-11T07:32:29.947Z,80.69
2022-12-11T07:34:31.631Z,81.05
2022-12-11T07:36:33.755Z,81.19
2022-12-11T07:38:35.661Z,80.92
2022-12-11T07:40:38.397Z,79.99
2022-12-11T07:42:45.826Z,80.09
2022-12-11T07:44:48.432Z,81.26
2022-12-11T07:46:50.115Z,81.38
2022-12-11T07:48:51.718Z,80.87
2022-12-11T07:50:53.269Z,80.48
2022-12-11T07:52:54.852Z,82.36
2022-12-11T07:54:56.355Z,81.23
2022-12-11T07:56:59.259Z,78.37
2022-12-11T07:59:02.542Z,77.89
2022-12-11T08:01:04.322Z,78.73
2022-12-11T08:03:05.684Z,79.47
2022-12-11T08:05:08.729Z,80.41
2022-12-11T08:07:10.526Z,79.99
2022-12-11T08:09:19.121Z,80.21
2022-12-11T08:11:23.080Z,79.73
2022-12-11T08:13:26.115Z,79.20
2022-12-11T08:15:27.645Z,80.36
2022-12-11T08:17:31.916Z,79.42
2022-12-11T08:19:35.516Z,79.83
2022-12-11T08:21:37.049Z,79.97
2022-12-11T08:23:38.839Z,80.02
2022-12-11T08:25:40.171Z,79.61
2022-12-11T08:27:41.725Z,79.50
2022-12-11T08:29:44.715Z,78.85
2022-12-11T08:31:46.271Z,79.28
2022-12-11T08:33:48.635Z,79.10
2022-12-11T08:35:50.288Z,79.80
2022-12-11T08:37:51.847Z,80.34
2022-12-11T08:39:53.390Z,80.42
2022-12-11T08:41:54.907Z,81.38
2022-12-11T08:43:57.370Z,81.87
2022-12-11T08:46:00.378Z,81.22
2022-12-11T08:48:02.278Z,81.02
2022-12-11T08:50:04.949Z,80.44
2022-12-11T08:52:07.111Z,81.91
2022-12-11T08:54:09.866Z,81.41
2022-12-11T08:56:13.177Z,82.23
2022-12-11T08:58:14.831Z,82.51
2022-12-11T09:00:18.099Z,81.76
2022-12-11T09:02:21.061Z,80.18
2022-12-11T09:04:22.973Z,80.64
2022-12-11T09:06:25.259Z,78.33
2022-12-11T09:08:27.035Z,78.06
2022-12-11T09:10:28.649Z,79.26
2022-12-11T09:12:30.230Z,78.34
2022-12-11T09:14:31.742Z,79.38
2022-12-11T09:16:33.597Z,80.68
2022-12-11T09:18:36.366Z,79.51
2022-12-11T09:20:37.882Z,78.40
2022-12-11T09:22:39.452Z,77.51
2022-12-11T09:24:41.069Z,75.64
2022-12-11T09:26:42.799Z,75.68
2022-12-11T09:28:46.917Z,77.45
2022-12-11T09:30:49.400Z,77.59
2022-12-11T09:32:50.995Z,79.62
2022-12-11T09:34:53.964Z,79.52
2022-12-11T09:36:55.527Z,79.11
2022-12-11T09:39:00.011Z,78.98
2022-12-11T09:41:02.151Z,79.43
2022-12-11T09:43:09.181Z,79.85
2022-12-11T09:45:14.028Z,78.50
2022-12-11T09:47:21.005Z,77.88
2022-12-11T09:49:28.553Z,77.01
2022-12-11T09:51:41.139Z,77.17
2022-12-11T09:53:42.732Z,77.46
2022-12-11T09:55:52.559Z,78.31
2022-12-11T09:58:02.470Z,76.95
2022-12-11T10:00:24.337Z,79.48
2022-12-11T10:02:38.322Z,79.34
2022-12-11T10:04:49.955Z,81.86
2022-12-11T10:07:03.592Z,80.76
2022-12-11T10:09:17.060Z,80.01
2022-12-11T10:11:43.937Z,79.69
2022-12-11T10:13:55.043Z,78.97
2022-12-11T10:16:00.541Z,79.08
2022-12-11T10:18:05.974Z,79.14
2022-12-11T10:20:26.319Z,78.44
2022-12-11T10:22:32.611Z,79.48
2022-12-11T10:25:10.111Z,79.09
2022-12-11T10:27:14.622Z,77.50
2022-12-11T10:29:21.912Z,78.04
2022-12-11T10:31:34.871Z,78.79
2022-12-11T10:33:46.305Z,79.79
2022-12-11T10:35:51.334Z,81.08
2022-12-11T10:37:57.506Z,81.22
2022-12-11T10:39:59.060Z,80.01
2022-12-11T10:42:10.618Z,81.38
2022-12-11T10:44:16.140Z,80.36
2022-12-11T10:46:20.110Z,81.58
2022-12-11T10:48:22.161Z,79.81
2022-12-11T10:50:25.839Z,81.17
2022-12-11T10:52:33.134Z,81.31
2022-12-11T10:54:39.793Z,81.48
2022-12-11T10:56:41.374Z,79.64
2022-12-11T10:58:50.055Z,80.18
2022-12-11T11:01:03.436Z,79.11
2022-12-11T11:03:07.690Z,81.08
2022-12-11T11:05:14.999Z,80.95
2022-12-11T11:07:20.540Z,80.03
2022-12-11T11:09:29.978Z,78.32
2022-12-11T11:11:36.562Z,79.32
2022-12-11T11:13:38.212Z,79.67
2022-12-11T11:15:39.896Z,79.05
2022-12-11T11:17:52.966Z,78.89
2022-12-11T11:19:59.773Z,78.01
2022-12-11T11:22:05.379Z,77.78
2022-12-11T11:24:07.039Z,78.28
2022-12-11T11:26:08.793Z,79.30
2022-12-11T11:28:17.933Z,79.88
2022-12-11T11:30:22.067Z,79.66
2022-12-11T11:32:33.722Z,79.74
2022-12-11T11:34:35.262Z,78.21
2022-12-11T11:36:37.984Z,77.78
2022-12-11T11:38:47.642Z,78.34
2022-12-11T11:41:00.747Z,78.46
2022-12-11T11:43:16.283Z,78.89
2022-12-11T11:45:22.847Z,78.79
2022-12-11T11:47:27.619Z,78.90
2022-12-11T11:49:44.483Z,77.55
2022-12-11T11:51:51.396Z,78.02
2022-12-11T11:53:56.756Z,78.82
2022-12-11T11:56:05.581Z,78.01
2022-12-11T11:58:12.742Z,77.21
2022-12-11T12:00:22.406Z,77.31
2022-12-11T12:02:24.091Z,77.58
2022-12-11T12:04:31.498Z,78.10
2022-12-11T12:06:50.937Z,77.73
2022-12-11T12:09:00.880Z,76.68
2022-12-11T12:11:09.858Z,77.28
2022-12-11T12:13:48.017Z,78.39
2022-12-11T12:15:50.132Z,79.64
2022-12-11T12:17:56.188Z,77.44
2022-12-11T12:20:11.098Z,78.58
2022-12-11T12:22:34.923Z,77.76
2022-12-11T12:24:48.645Z,78.63
2022-12-11T12:26:55.903Z,78.40
2022-12-11T12:29:12.967Z,78.56
2022-12-11T12:31:30.696Z,79.19
2022-12-11T12:33:45.351Z,79.67
2022-12-11T12:35:55.753Z,76.54
2022-12-11T12:38:04.580Z,78.13
2022-12-11T12:40:18.943Z,78.51
2022-12-11T12:42:33.279Z,77.22
2022-12-11T12:44:41.628Z,77.56
2022-12-11T12:46:51.741Z,78.61
2022-12-11T12:48:56.303Z,77.34
2022-12-11T12:50:58.198Z,78.19
2022-12-11T12:53:00.524Z,78.28
2022-12-11T12:55:15.677Z,78.96
2022-12-11T12:57:17.606Z,78.23
2022-12-11T12:59:21.514Z,77.92
2022-12-11T13:01:25.948Z,78.84
2022-12-11T13:03:32.836Z,77.44
2022-12-11T13:05:34.723Z,77.14
2022-12-11T13:07:37.565Z,78.63
2022-12-11T13:09:39.312Z,78.07
2022-12-11T13:11:41.056Z,78.67
2022-12-11T13:13:48.980Z,78.27
2022-12-11T13:15:53.365Z,76.90
2022-12-11T13:17:55.044Z,77.07
2022-12-11T13:20:17.224Z,77.07
2022-12-11T13:22:23.501Z,77.78
2022-12-11T13:24:27.019Z,78.08
2022-12-11T13:26:30.844Z,78.24
2022-12-11T13:28:46.814Z,78.33
2022-12-11T13:30:57.429Z,78.57
2022-12-11T13:33:03.664Z,78.15
2022-12-11T13:35:06.937Z,79.07
2022-12-11T13:37:25.047Z,80.22
2022-12-11T13:39:29.091Z,80.21
2022-12-11T13:41:35.051Z,79.49
2022-12-11T13:43:40.949Z,81.38
2022-12-11T13:45:46.438Z,80.87
2022-12-11T13:47:48.164Z,79.04
2022-12-11T13:49:54.971Z,80.47
2022-12-11T13:51:58.572Z,79.60
2022-12-11T13:54:17.090Z,79.20
2022-12-11T13:56:21.403Z,80.23
2022-12-11T13:58:23.673Z,80.64
2022-12-11T14:00:27.591Z,80.50
2022-12-11T14:02:32.540Z,82.61
2022-12-11T14:04:34.947Z,81.64
2022-12-11T14:06:38.879Z,80.67
2022-12-11T14:08:44.021Z,81.32
2022-12-11T14:10:52.118Z,80.86
2022-12-11T14:12:55.982Z,80.07
2022-12-11T14:14:59.441Z,80.60
2022-12-11T14:17:01.156Z,79.62
2022-12-11T14:19:03.552Z,81.20
2022-12-11T14:21:06.652Z,79.26
2022-12-11T14:23:16.642Z,80.78
2022-12-11T14:25:22.226Z,79.22
2022-12-11T14:27:26.248Z,81.08
2022-12-11T14:29:30.422Z,82.99
2022-12-11T14:31:36.160Z,81.38
2022-12-11T14:33:43.780Z,81.63
2022-12-11T14:35:47.026Z,82.48
2022-12-11T14:37:48.995Z,81.53
2022-12-11T14:39:57.097Z,82.70
2022-12-11T14:42:03.154Z,82.78
2022-12-11T14:44:08.444Z,83.50
2022-12-11T14:46:16.936Z,83.37
2022-12-11T14:48:22.930Z,80.20
2022-12-11T14:50:30.634Z,81.89
2022-12-11T14:52:36.551Z,82.42
2022-12-11T14:54:43.823Z,81.98
2022-12-11T14:56:46.264Z,83.17
2022-12-11T14:58:55.418Z,83.04
2022-12-11T15:01:00.311Z,82.79
2022-12-11T15:03:03.987Z,84.08
2022-12-11T15:05:13.597Z,83.09
2022-12-11T15:07:20.625Z,81.81
2022-12-11T15:09:26.757Z,82.60
2022-12-11T15:11:31.916Z,83.34
2022-12-11T15:13:35.315Z,82.89
2022-12-11T15:15:44.945Z,84.34
2022-12-11T15:17:52.903Z,84.54
2022-12-11T15:20:01.891Z,84.97
2022-12-11T15:22:05.749Z,85.26
2022-12-11T15:24:23.290Z,84.62
2022-12-11T15:26:33.855Z,85.96
2022-12-11T15:28:36.986Z,85.02
2022-12-11T15:30:38.568Z,84.64
2022-12-11T15:32:40.410Z,84.63
2022-12-11T15:34:44.854Z,84.02
2022-12-11T15:36:46.623Z,85.53
2022-12-11T15:38:48.125Z,84.35
2022-12-11T15:40:49.720Z,84.53
2022-12-11T15:42:52.311Z,85.71
2022-12-11T15:44:55.557Z,85.31
2022-12-11T15:46:57.123Z,84.53
2022-12-11T15:48:58.815Z,85.15
2022-12-11T15:51:01.994Z,85.75
2022-12-11T15:53:03.754Z,85.37
2022-12-11T15:55:05.556Z,83.84
2022-12-11T15:57:14.351Z,85.59
2022-12-11T15:59:16.352Z,84.17
2022-12-11T16:01:17.996Z,85.58
2022-12-11T16:03:20.945Z,84.35
2022-12-11T16:05:23.038Z,85.28
2022-12-11T16:07:26.477Z,85.26
2022-12-11T16:09:28.023Z,84.32
2022-12-11T16:11:29.614Z,84.20
2022-12-11T16:13:31.223Z,85.11
2022-12-11T16:15:32.838Z,85.75
2022-12-11T16:17:34.587Z,85.76
2022-12-11T16:19:37.195Z,83.87
2022-12-11T16:21:38.769Z,85.08
2022-12-11T16:23:41.779Z,85.50
2022-12-11T16:25:45.004Z,85.85
2022-12-11T16:27:46.796Z,85.40
2022-12-11T16:29:48.215Z,86.15
2022-12-11T16:31:49.900Z,85.24
2022-12-11T16:33:51.409Z,86.50
2022-12-11T16:35:52.960Z,85.96
2022-12-11T16:37:55.404Z,84.27
2022-12-11T16:39:58.348Z,84.73
2022-12-11T16:41:59.975Z,86.43
2022-12-11T16:44:01.610Z,85.67
2022-12-11T16:46:03.624Z,84.10
2022-12-11T16:48:05.569Z,85.71
2022-12-11T16:50:07.765Z,84.42
2022-12-11T16:52:09.674Z,86.34
2022-12-11T16:54:12.089Z,85.58
2022-12-11T16:56:15.065Z,85.55
2022-12-11T16:58:16.622Z,86.51
2022-12-11T17:00:18.405Z,87.64
2022-12-11T17:02:19.878Z,88.40
2022-12-11T17:04:21.425Z,87.99
2022-12-11T17:06:23.348Z,86.43
2022-12-11T17:08:25.881Z,85.91
2022-12-11T17:10:27.462Z,86.61
2022-12-11T17:12:30.623Z,87.26
2022-12-11T17:14:32.224Z,87.66
2022-12-11T17:16:34.063Z,86.68
2022-12-11T17:18:36.344Z,87.80
2022-12-11T17:20:40.520Z,87.20
2022-12-11T17:22:42.054Z,87.22
2022-12-11T17:24:43.942Z,89.48
2022-12-11T17:26:45.353Z,86.88
2022-12-11T17:28:48.264Z,87.70
2022-12-11T17:30:49.900Z,89.16
2022-12-11T17:32:51.651Z,89.08
2022-12-11T17:34:53.158Z,89.02
2022-12-11T17:36:54.767Z,88.98
2022-12-11T17:38:56.348Z,89.59
2022-12-11T17:40:58.145Z,91.38
2022-12-11T17:42:59.626Z,90.52
2022-12-11T17:45:02.617Z,92.14
2022-12-11T17:47:10.614Z,92.41
2022-12-11T17:49:12.776Z,91.85
2022-12-11T17:51:16.145Z,88.95
2022-12-11T17:53:19.682Z,91.28
2022-12-11T17:55:21.355Z,91.03
2022-12-11T17:57:22.971Z,91.92
2022-12-11T17:59:24.571Z,92.61
2022-12-11T18:01:27.618Z,93.28
2022-12-11T18:03:29.329Z,93.29
2022-12-11T18:05:31.006Z,93.46
2022-12-11T18:07:32.567Z,91.95
2022-12-11T18:09:34.181Z,92.05
2022-12-11T18:11:35.937Z,92.44
2022-12-11T18:13:38.649Z,92.93
2022-12-11T18:15:40.357Z,92.34
2022-12-11T18:17:43.375Z,90.27
2022-12-11T18:19:46.318Z,92.21
2022-12-11T18:21:48.147Z,91.32
2022-12-11T18:23:49.783Z,92.26
2022-12-11T18:25:51.497Z,91.24
2022-12-11T18:27:53.310Z,91.38
2022-12-11T18:29:54.756Z,92.86
2022-12-11T18:31:56.447Z,93.22
2022-12-11T18:33:59.396Z,93.24
2022-12-11T18:36:00.951Z,92.37
2022-12-11T18:38:02.608Z,91.78
2022-12-11T18:40:05.008Z,90.81
2022-12-11T18:42:34.320Z,92.78
2022-12-11T18:44:28.144Z,93.42
2022-12-11T18:46:29.752Z,92.84
2022-12-11T18:48:31.327Z,93.08
2022-12-11T18:50:34.932Z,93.72
2022-12-11T18:52:36.563Z,94.28
2022-12-11T18:54:38.534Z,93.89
2022-12-11T18:56:40.112Z,95.65
2022-12-11T18:58:42.436Z,94.09
2022-12-11T19:00:44.794Z,94.07
2022-12-11T19:02:46.785Z,94.46
2022-12-11T19:04:48.366Z,94.51
2022-12-11T19:06:51.393Z,95.94
2022-12-11T19:08:53.006Z,96.05
2022-12-11T19:10:54.618Z,97.94
2022-12-11T19:12:56.209Z,96.08
2022-12-11T19:14:57.785Z,97.98
2022-12-11T19:16:59.445Z,95.31
2022-12-11T19:19:02.661Z,96.26
2022-12-11T19:21:09.360Z,95.59
2022-12-11T19:23:12.414Z,99.08
2022-12-11T19:25:14.350Z,97.25
2022-12-11T19:27:16.311Z,97.07
2022-12-11T19:29:20.065Z,95.11
2022-12-11T19:31:23.204Z,96.04
2022-12-11T19:33:24.994Z,96.83
2022-12-11T19:35:26.550Z,95.07
2022-12-11T19:37:28.109Z,95.43
2022-12-11T19:39:31.091Z,95.57
2022-12-11T19:41:32.847Z,96.22
2022-12-11T19:43:34.914Z,96.12
2022-12-11T19:45:37.055Z,97.80
2022-12-11T19:47:38.693Z,94.01
2022-12-11T19:49:40.314Z,95.63
2022-12-11T19:51:42.788Z,95.46
2022-12-11T19:53:45.632Z,95.91
2022-12-11T19:55:50.739Z,95.37
2022-12-11T19:57:52.358Z,92.32
2022-12-11T19:59:57.182Z,94.48
2022-12-11T20:01:59.096Z,93.76
2022-12-11T20:04:03.471Z,93.96
2022-12-11T20:06:07.593Z,93.69
2022-12-11T20:08:35.710Z,95.35
2022-12-11T20:10:30.716Z,95.27
2022-12-11T20:12:33.710Z,94.93
2022-12-11T20:14:36.298Z,94.65
2022-12-11T20:19:00.002Z,94.64
2022-12-11T20:21:02.012Z,92.26
2022-12-11T20:23:03.604Z,91.86
2022-12-11T20:25:06.074Z,93.00
2022-12-11T20:27:07.631Z,92.49
2022-12-11T20:29:12.556Z,92.64
2022-12-11T20:31:20.022Z,93.63
2022-12-11T20:33:22.051Z,93.42
2022-12-11T20:35:23.604Z,91.53
2022-12-11T20:37:25.186Z,93.05
2022-12-11T20:39:26.788Z,92.08
2022-12-11T20:41:28.400Z,91.25
2022-12-11T20:43:30.192Z,91.33
2022-12-11T20:45:32.943Z,92.00
2022-12-11T20:47:34.693Z,92.11
2022-12-11T20:49:36.371Z,92.00
2022-12-11T20:51:38.320Z,89.93
2022-12-11T20:53:40.761Z,92.12
2022-12-11T20:55:43.265Z,90.80
2022-12-11T20:57:45.337Z,90.86
2022-12-11T20:59:47.382Z,91.14
2022-12-11T21:01:50.237Z,88.64
2022-12-11T21:03:52.214Z,89.49
2022-12-11T21:05:53.923Z,89.50
2022-12-11T21:07:55.611Z,90.65
2022-12-11T21:09:57.017Z,89.96
2022-12-11T21:11:58.821Z,91.60
2022-12-11T21:14:00.139Z,91.64
2022-12-11T21:16:04.822Z,92.33
2022-12-11T21:18:08.208Z,92.40
2022-12-11T21:20:10.723Z,90.91
2022-12-11T21:22:12.284Z,90.78
2022-12-11T21:24:16.055Z,90.39
2022-12-11T21:26:17.708Z,91.40
2022-12-11T21:28:19.783Z,92.54
2022-12-11T21:30:21.714Z,88.88
2022-12-11T21:32:23.368Z,90.57
2022-12-11T21:34:26.759Z,89.13
2022-12-11T21:36:28.417Z,90.88
2022-12-11T21:38:30.113Z,91.95
2022-12-11T21:40:31.705Z,90.88
2022-12-11T21:42:33.241Z,89.94
2022-12-11T21:46:56.367Z,91.53
2022-12-11T21:48:58.314Z,91.34
2022-12-11T21:51:07.144Z,93.09
2022-12-11T21:53:08.668Z,92.72
2022-12-11T21:55:11.523Z,93.34
2022-12-11T21:57:13.295Z,93.51
2022-12-11T21:59:15.030Z,94.97
2022-12-11T22:01:19.196Z,96.14
2022-12-11T22:03:20.742Z,96.38
2022-12-11T22:05:22.361Z,95.21
2022-12-11T22:07:25.297Z,96.68
2022-12-11T22:09:26.850Z,97.75
2022-12-11T22:11:30.988Z,99.23
2022-12-11T22:13:32.639Z,99.34
2022-12-11T22:15:34.252Z,98.26
2022-12-11T22:17:35.872Z,98.72
2022-12-11T22:19:37.463Z,97.76
2022-12-11T22:21:39.286Z,98.42
2022-12-11T22:23:42.495Z,98.93
2022-12-11T22:25:44.067Z,98.38
2022-12-11T22:27:45.655Z,99.48
2022-12-11T22:29:47.194Z,98.29
2022-12-11T22:31:48.805Z,95.89
2022-12-11T22:33:51.369Z,99.12
2022-12-11T22:35:56.866Z,100.00
2022-12-11T22:37:58.704Z,99.04
2022-12-11T22:40:01.513Z,99.75
2022-12-11T22:42:03.085Z,100.00
2022-12-11T22:44:04.808Z,98.02
2022-12-11T22:46:06.510Z,99.42
2022-12-11T22:48:08.410Z,99.69
2022-12-11T22:50:11.752Z,100.00
2022-12-11T22:52:13.277Z,98.93
2022-12-11T22:54:14.831Z,98.84
2022-12-11T22:56:17.952Z,98.97
2022-12-11T22:58:21.857Z,98.49
2022-12-11T23:00:24.097Z,96.84
2022-12-11T23:02:25.690Z,96.69
2022-12-11T23:04:27.286Z,97.47
2022-12-11T23:06:28.867Z,96.19
2022-12-11T23:08:30.556Z,98.75
2022-12-11T23:10:31.985Z,97.98
2022-12-11T23:12:35.990Z,96.36
2022-12-11T23:14:37.995Z,95.64
2022-12-11T23:16:39.664Z,95.13
2022-12-11T23:18:41.253Z,95.80
2022-12-11T23:20:42.944Z,95.46
2022-12-11T23:22:44.486Z,96.63
2022-12-11T23:24:46.103Z,94.04
2022-12-11T23:26:47.637Z,95.01
2022-12-11T23:28:50.677Z,97.36
2022-12-11T23:30:52.401Z,96.69
2022-12-11T23:32:53.808Z,94.25
2022-12-11T23:34:55.332Z,93.51
2022-12-11T23:36:56.869Z,93.01
2022-12-11T23:38:58.461Z,95.49
2022-12-11T23:41:01.259Z,94.18
2022-12-11T23:43:02.810Z,93.09
2022-12-11T23:45:06.699Z,94.49
2022-12-11T23:47:08.207Z,94.67
2022-12-11T23:49:09.762Z,95.68
2022-12-11T23:51:13.791Z,94.86
2022-12-11T23:53:15.466Z,96.35
2022-12-11T23:55:17.085Z,95.56
2022-12-11T23:57:18.711Z,95.90
2022-12-11T23:59:20.374Z,96.13
